Terminal Aerodrome Forecast
Issued by NWS Northern Indiana

Home | Current Version | Previous Version | Text Only | Print | Product List | Glossary On
Versions: 1 2 3 4 5 6 7 8 9 10 11 12
000
FTUS43 KIWX 061125
TAFFWA
TAF
KFWA 061125Z 0612/0712 18003KT P6SM SKC
      TEMPO 0612/0613 5SM BR
     FM061500 21010KT P6SM SCT035
     FM070900 20010KT 6SM BR BKN035=

USA.gov is the U.S. government's official web portal to all federal, state and local government web resources and services.